Time;durP1;ratioP1;P1;durP2;ratioP2;P2;SDS_P1;SDS_P2;PMS_P1;PMS_P2;Temp;Humidity;BMP_temperature;BMP_pressure;BME280_temperature;BME280_humidity;BME280_pressure;Samples;Min_cycle;Max_cycle;Signal;HPM_P1;HPM_P2
2022/06/10 00:01:22;;;;;;;2.33;2.10;;;17.00;49.70;;;;;;20919;6750;117498;-87
2022/06/10 00:03:58;;;;;;;2.72;2.45;;;16.90;49.70;;;;;;20618;6765;307151;-88
2022/06/10 00:06:34;;;;;;;3.30;2.50;;;16.90;49.70;;;;;;20541;6766;306795;-87
2022/06/10 00:09:10;;;;;;;2.63;2.40;;;17.10;49.50;;;;;;20816;6764;117059;-88
2022/06/10 00:11:47;;;;;;;4.00;2.72;;;16.90;49.70;;;;;;20677;6744;308487;-87
2022/06/10 00:14:22;;;;;;;2.80;2.60;;;16.80;49.60;;;;;;20923;6735;117450;-87
2022/06/10 00:16:58;;;;;;;3.83;2.57;;;16.60;49.90;;;;;;20745;6746;119586;-88
2022/06/10 00:19:33;;;;;;;2.70;2.50;;;16.30;50.40;;;;;;20670;6746;308775;-87
2022/06/10 00:22:10;;;;;;;2.60;2.40;;;16.40;50.50;;;;;;20671;6746;276872;-89
2022/06/10 00:24:46;;;;;;;2.70;2.40;;;16.70;50.30;;;;;;20663;6746;305172;-87
2022/06/10 00:27:21;;;;;;;2.97;2.60;;;16.90;50.20;;;;;;20510;6746;308013;-87
2022/06/10 00:29:57;;;;;;;3.10;2.80;;;17.10;49.90;;;;;;20680;6746;279442;-87
2022/06/10 00:32:32;;;;;;;3.15;2.75;;;17.20;50.00;;;;;;20673;6746;299837;-87
2022/06/10 00:35:08;;;;;;;4.07;3.07;;;17.20;49.80;;;;;;20668;6746;275706;-86
2022/06/10 00:37:44;;;;;;;3.30;3.00;;;17.20;50.30;;;;;;20436;6761;308501;-90
2022/06/10 00:40:19;;;;;;;2.97;2.70;;;17.20;49.70;;;;;;20637;6746;297723;-88
2022/06/10 00:42:56;;;;;;;4.90;2.87;;;17.10;50.10;;;;;;20558;6781;278578;-87
2022/06/10 00:46:11;;;;;;;3.45;2.72;;;17.10;50.00;;;;;;20563;6784;278157;-89
2022/06/10 00:48:57;;;;;;;3.13;2.83;;;17.10;49.80;;;;;;20580;6767;296033;-87
2022/06/10 00:51:42;;;;;;;2.90;2.70;;;17.10;50.00;;;;;;20891;6740;117912;-88
2022/06/10 00:54:38;;;;;;;3.40;3.00;;;16.60;51.10;;;;;;20647;6755;306344;-87
2022/06/10 00:57:17;;;;;;;4.07;3.33;;;16.60;50.80;;;;;;20427;6772;311181;-87
2022/06/10 00:59:53;;;;;;;4.17;2.97;;;16.80;51.00;;;;;;20687;6735;306190;-87
2022/06/10 01:02:30;;;;;;;3.10;2.80;;;16.80;50.80;;;;;;20885;6749;118722;-87
2022/06/10 01:05:04;;;;;;;3.87;3.47;;;16.50;51.00;;;;;;20649;6749;277501;-88
2022/06/10 01:07:40;;;;;;;4.37;3.60;;;16.50;51.30;;;;;;20721;6748;117315;-87
2022/06/10 01:10:15;;;;;;;4.17;3.53;;;16.20;51.40;;;;;;20885;6735;117697;-87
2022/06/10 01:13:03;;;;;;;5.70;3.85;;;15.90;52.10;;;;;;20694;6735;288324;-88
2022/06/10 01:15:42;;;;;;;4.20;3.80;;;16.00;52.50;;;;;;20703;6732;336778;-88
2022/06/10 01:18:35;;;;;;;4.03;3.63;;;16.10;52.00;;;;;;20912;6738;119745;-87
2022/06/10 01:21:23;;;;;;;3.40;3.10;;;16.00;52.00;;;;;;20828;6794;120145;-87
2022/06/10 01:24:35;;;;;;;3.33;3.00;;;15.70;52.60;;;;;;20910;6738;120999;-87
2022/06/10 01:30:47;;;;;;;3.60;3.30;;;15.10;53.40;;;;;;20858;6750;117274;-88
2022/06/10 01:33:29;;;;;;;3.43;3.07;;;15.00;53.80;;;;;;20878;6751;116983;-88
2022/06/10 01:36:35;;;;;;;3.70;3.30;;;14.80;54.00;;;;;;20626;6751;278113;-87
2022/06/10 01:39:31;;;;;;;4.47;3.78;;;15.20;54.60;;;;;;20682;6746;339634;-87
2022/06/10 01:42:10;;;;;;;4.00;3.30;;;15.60;53.30;;;;;;20865;6762;118198;-86
2022/06/10 01:44:48;;;;;;;3.27;3.03;;;15.50;53.10;;;;;;20641;6792;120127;-88
2022/06/10 01:47:44;;;;;;;3.60;3.30;;;15.20;53.50;;;;;;20760;6745;118662;-87
2022/06/10 01:50:39;;;;;;;4.00;3.53;;;15.00;54.00;;;;;;20730;6735;285714;-90
2022/06/10 01:53:31;;;;;;;3.50;3.30;;;15.20;53.90;;;;;;19941;7072;118887;-88
2022/06/10 01:56:06;;;;;;;3.47;3.17;;;15.20;53.80;;;;;;19888;7083;118023;-87
2022/06/10 01:58:43;;;;;;;4.35;3.00;;;15.30;54.00;;;;;;20016;6814;277170;-87
2022/06/10 02:01:18;;;;;;;5.03;3.50;;;15.20;53.80;;;;;;20641;6757;305440;-87
2022/06/10 02:03:55;;;;;;;2.90;2.70;;;15.60;52.60;;;;;;20826;6764;118250;-86
2022/06/10 02:06:41;;;;;;;3.00;2.70;;;15.50;52.50;;;;;;20763;6779;123081;-87
2022/06/10 02:09:23;;;;;;;2.70;2.50;;;15.20;53.10;;;;;;20803;6791;124075;-87
2022/06/10 02:11:58;;;;;;;4.50;3.40;;;14.90;53.50;;;;;;20689;6725;322526;-86
2022/06/10 02:14:38;;;;;;;3.37;3.07;;;15.10;53.30;;;;;;20880;6760;117213;-87
2022/06/10 02:17:12;;;;;;;3.63;3.00;;;15.10;53.10;;;;;;20785;6750;118329;-88
2022/06/10 02:19:53;;;;;;;4.45;3.60;;;14.80;53.50;;;;;;20733;6741;308026;-87
2022/06/10 02:22:31;;;;;;;3.00;2.80;;;15.00;53.60;;;;;;20852;6756;117715;-87
2022/06/10 02:25:11;;;;;;;3.97;3.15;;;15.00;53.50;;;;;;20638;6750;306158;-87
2022/06/10 02:27:46;;;;;;;2.77;2.67;;;15.10;53.30;;;;;;20753;6751;122867;-87
2022/06/10 02:30:28;;;;;;;3.67;2.77;;;15.00;53.20;;;;;;20953;6724;115720;-87
2022/06/10 02:33:04;;;;;;;4.47;3.20;;;14.80;53.60;;;;;;20716;6724;276346;-87
2022/06/10 02:35:45;;;;;;;4.20;2.67;;;15.00;53.50;;;;;;20944;6724;118921;-87
2022/06/10 02:38:25;;;;;;;3.20;3.00;;;15.10;53.30;;;;;;20744;6724;277010;-87
2022/06/10 02:41:04;;;;;;;3.30;2.97;;;15.10;53.30;;;;;;20419;6786;332454;-87
2022/06/10 02:43:43;;;;;;;3.37;3.03;;;15.50;52.60;;;;;;20723;6744;305732;-87
2022/06/10 02:46:18;;;;;;;3.05;2.80;;;15.70;51.90;;;;;;20008;6786;280076;-87
2022/06/10 02:49:07;;;;;;;3.00;2.77;;;15.80;51.90;;;;;;20695;6729;276273;-87
2022/06/10 02:51:42;;;;;;;3.20;2.30;;;15.90;51.40;;;;;;20847;6744;117099;-87
2022/06/10 02:54:31;;;;;;;3.53;2.50;;;15.70;51.90;;;;;;20883;6740;117070;-87
2022/06/10 02:57:13;;;;;;;2.90;2.70;;;15.30;52.40;;;;;;20762;6729;120449;-87
2022/06/10 03:02:47;;;;;;;3.13;2.93;;;15.10;52.70;;;;;;20806;6764;121143;-87
2022/06/10 03:05:33;;;;;;;4.60;3.25;;;14.90;52.70;;;;;;20668;6748;305760;-88
2022/06/10 03:08:23;;;;;;;3.53;3.33;;;15.00;52.80;;;;;;20701;6733;278091;-88
2022/06/10 03:11:10;;;;;;;3.20;3.00;;;15.30;52.40;;;;;;20684;6735;336028;-88
2022/06/10 03:13:57;;;;;;;2.83;2.67;;;15.50;51.70;;;;;;20992;6735;67074;-90
2022/06/10 03:17:06;;;;;;;3.33;3.03;;;15.20;52.10;;;;;;20640;6735;302714;-88
2022/06/10 03:19:52;;;;;;;2.93;2.50;;;14.90;52.90;;;;;;20894;6739;117362;-88
2022/06/10 03:22:31;;;;;;;2.80;2.60;;;14.90;53.00;;;;;;20820;6767;117002;-88
2022/06/10 03:25:23;;;;;;;3.50;3.20;;;14.60;54.00;;;;;;20649;6750;278294;-88
2022/06/10 03:27:59;;;;;;;3.30;3.10;;;15.10;53.00;;;;;;20487;6749;308662;-87
2022/06/10 03:30:34;;;;;;;3.73;3.27;;;15.10;53.00;;;;;;20690;6733;305707;-88
2022/06/10 03:33:34;;;;;;;3.10;2.90;;;15.40;52.80;;;;;;20901;6735;116742;-89
2022/06/10 03:36:12;;;;;;;3.27;2.97;;;15.10;52.80;;;;;;20886;6735;118527;-88
2022/06/10 03:38:47;;;;;;;3.55;3.25;;;14.80;53.50;;;;;;20652;6746;276774;-87
2022/06/10 03:41:31;;;;;;;3.67;3.20;;;14.80;53.40;;;;;;20661;6750;306739;-87
2022/06/10 03:44:10;;;;;;;4.77;3.20;;;15.10;52.70;;;;;;20832;6758;116818;-86
2022/06/10 03:46:45;;;;;;;5.00;2.70;;;15.00;52.90;;;;;;20676;6760;118753;-86
2022/06/10 03:49:22;;;;;;;3.63;2.67;;;14.70;53.50;;;;;;20845;6754;117769;-86
2022/06/10 03:51:58;;;;;;;3.17;2.97;;;14.40;53.90;;;;;;20592;6771;305859;-86
2022/06/10 03:54:33;;;;;;;3.13;2.83;;;14.60;53.80;;;;;;20675;6739;310295;-87
2022/06/10 03:57:09;;;;;;;3.30;3.00;;;15.00;53.30;;;;;;20558;6736;310578;-87
2022/06/10 03:59:44;;;;;;;2.93;2.60;;;15.30;52.30;;;;;;20837;6756;117616;-86
2022/06/10 04:02:20;;;;;;;2.40;2.30;;;15.10;52.20;;;;;;20839;6750;117289;-86
2022/06/10 04:04:55;;;;;;;2.93;2.67;;;14.80;52.90;;;;;;20837;6750;118039;-87
2022/06/10 04:07:31;;;;;;;2.92;2.80;;;14.50;53.50;;;;;;20532;6750;340279;-86
2022/06/10 04:10:08;;;;;;;3.47;2.50;;;14.70;53.30;;;;;;20835;6756;117019;-86
2022/06/10 04:12:42;;;;;;;2.90;2.70;;;14.70;53.10;;;;;;20889;6731;118090;-88
2022/06/10 04:15:18;;;;;;;3.00;2.80;;;14.50;53.50;;;;;;20937;6731;117091;-87
2022/06/10 04:17:53;;;;;;;3.03;2.83;;;14.40;53.90;;;;;;20695;6737;119098;-87
2022/06/10 04:20:30;;;;;;;4.00;3.00;;;14.30;54.20;;;;;;20657;6740;277618;-87
2022/06/10 04:23:06;;;;;;;3.20;2.90;;;14.60;54.20;;;;;;20706;6731;276011;-86
2022/06/10 04:25:41;;;;;;;3.10;2.90;;;15.00;53.30;;;;;;20699;6746;275871;-88
2022/06/10 04:28:17;;;;;;;3.05;2.80;;;15.30;52.60;;;;;;20700;6731;306954;-87
2022/06/10 04:30:53;;;;;;;3.40;3.10;;;15.50;51.90;;;;;;20624;6746;280014;-86
2022/06/10 04:33:37;;;;;;;3.40;3.10;;;15.70;51.60;;;;;;20697;6731;324364;-86
2022/06/10 04:36:04;;;;;;;3.10;2.90;;;15.80;51.40;;;;;;20825;6746;121638;-87
2022/06/10 04:38:39;;;;;;;2.70;2.50;;;15.50;51.70;;;;;;20838;6752;121363;-88
2022/06/10 04:41:15;;;;;;;3.45;3.15;;;15.20;52.60;;;;;;20583;6772;301865;-89
2022/06/10 04:43:50;;;;;;;3.20;2.90;;;15.30;52.90;;;;;;20976;6722;116249;-89
2022/06/10 04:46:29;;;;;;;3.80;3.00;;;15.20;53.00;;;;;;21017;6632;117892;-89
2022/06/10 04:49:05;;;;;;;4.18;3.22;;;14.90;53.40;;;;;;20736;6733;277048;-86
2022/06/10 04:51:40;;;;;;;3.83;3.53;;;15.10;53.60;;;;;;20720;6734;298854;-86
2022/06/10 04:54:16;;;;;;;3.60;3.30;;;15.50;52.90;;;;;;20705;6733;307438;-87
2022/06/10 04:56:51;;;;;;;3.83;3.40;;;15.70;52.30;;;;;;20602;6734;279331;-86
2022/06/10 04:59:27;;;;;;;3.80;3.50;;;15.90;52.00;;;;;;20582;6771;278641;-87
2022/06/10 05:02:03;;;;;;;3.67;3.37;;;16.10;51.70;;;;;;20518;6790;339004;-87
2022/06/10 05:04:38;;;;;;;3.85;3.55;;;16.10;51.40;;;;;;20538;6768;339849;-86
2022/06/10 05:07:14;;;;;;;5.13;3.20;;;16.20;51.40;;;;;;20727;6769;118219;-86
2022/06/10 05:09:49;;;;;;;3.23;3.00;;;16.00;51.80;;;;;;20915;6737;120875;-87
2022/06/10 05:12:28;;;;;;;4.45;3.30;;;15.60;52.60;;;;;;20707;6737;277572;-88
2022/06/10 05:15:01;;;;;;;4.53;3.33;;;15.70;53.10;;;;;;20668;6737;306524;-87
2022/06/10 05:17:36;;;;;;;3.07;2.87;;;15.90;52.50;;;;;;20753;6737;118717;-87
2022/06/10 05:20:12;;;;;;;3.92;3.62;;;15.80;52.60;;;;;;20701;6737;306520;-87
2022/06/10 05:22:47;;;;;;;4.77;3.70;;;15.90;53.10;;;;;;20892;6737;118115;-87
2022/06/10 05:25:23;;;;;;;3.72;3.33;;;15.70;53.10;;;;;;20610;6767;338998;-88
2022/06/10 05:27:58;;;;;;;3.53;3.23;;;15.90;53.00;;;;;;20717;6735;117689;-87
2022/06/10 05:30:34;;;;;;;4.03;3.60;;;15.80;53.10;;;;;;20595;6750;290180;-87
2022/06/10 05:33:09;;;;;;;4.37;3.30;;;15.90;53.40;;;;;;20580;6771;310262;-87
2022/06/10 05:35:46;;;;;;;3.40;3.10;;;16.10;52.80;;;;;;20813;6772;117621;-87
2022/06/10 05:38:22;;;;;;;3.23;3.03;;;16.10;52.80;;;;;;20807;6772;117163;-87
2022/06/10 05:42:04;;;;;;;3.83;2.90;;;15.80;53.40;;;;;;20875;6757;118227;-87
2022/06/10 05:43:32;;;;;;;3.60;3.33;;;15.60;53.90;;;;;;20828;6813;117545;-89
2022/06/10 05:46:08;;;;;;;4.33;3.23;;;15.50;54.30;;;;;;20611;6757;280594;-87
2022/06/10 05:48:44;;;;;;;3.33;3.13;;;16.30;54.20;;;;;;20713;6728;305543;-87
2022/06/10 05:51:20;;;;;;;3.73;3.00;;;16.30;53.60;;;;;;20947;6727;117690;-87
2022/06/10 05:53:55;;;;;;;3.42;3.17;;;16.40;53.50;;;;;;20736;6727;295686;-87
2022/06/10 05:56:31;;;;;;;3.23;3.03;;;16.60;53.20;;;;;;20865;6727;117056;-88
2022/06/10 05:59:07;;;;;;;4.60;3.22;;;17.00;52.70;;;;;;20710;6727;305291;-87
2022/06/10 06:01:43;;;;;;;2.90;2.70;;;17.00;53.30;;;;;;20927;6727;117422;-87
2022/06/10 06:04:19;;;;;;;2.73;2.53;;;17.10;52.70;;;;;;20945;6727;119082;-88
2022/06/10 06:06:54;;;;;;;3.30;3.00;;;17.00;52.80;;;;;;20617;6727;278657;-87
2022/06/10 06:09:30;;;;;;;3.20;2.80;;;17.40;51.80;;;;;;20725;6727;308343;-88
2022/06/10 06:12:05;;;;;;;3.77;2.60;;;18.20;51.10;;;;;;20734;6727;306741;-87
2022/06/10 06:14:42;;;;;;;2.83;2.63;;;20.20;47.90;;;;;;20659;6746;279492;-87
2022/06/10 06:17:19;;;;;;;2.50;2.30;;;20.10;47.40;;;;;;20481;6754;281870;-87
2022/06/10 06:19:54;;;;;;;2.93;2.43;;;21.10;45.90;;;;;;20804;6771;117253;-87
2022/06/10 06:22:30;;;;;;;2.60;2.40;;;21.60;46.80;;;;;;20612;6769;300546;-87
2022/06/10 06:25:05;;;;;;;3.43;2.50;;;22.20;44.30;;;;;;20796;6769;121052;-87
2022/06/10 06:27:42;;;;;;;2.93;2.20;;;22.50;45.10;;;;;;20539;6754;308557;-89
2022/06/10 06:30:30;;;;;;;2.60;2.08;;;23.20;42.60;;;;;;20733;6727;318774;-88
2022/06/10 06:33:02;;;;;;;2.30;2.10;;;23.80;41.10;;;;;;20927;6727;121037;-88
2022/06/10 06:35:37;;;;;;;2.50;2.27;;;23.90;42.10;;;;;;20926;6734;118021;-89
2022/06/10 06:38:13;;;;;;;3.83;2.53;;;23.80;42.70;;;;;;20576;6768;293662;-88
2022/06/10 06:40:48;;;;;;;3.62;2.35;;;24.20;39.90;;;;;;20571;6772;307648;-88
2022/06/10 06:43:24;;;;;;;2.00;1.80;;;24.80;39.20;;;;;;20861;6756;117015;-87
2022/06/10 06:46:00;;;;;;;4.10;2.30;;;25.30;39.00;;;;;;20589;6760;310099;-88
2022/06/10 06:48:36;;;;;;;3.60;2.47;;;25.30;38.30;;;;;;20692;6742;277432;-88
2022/06/10 06:51:11;;;;;;;4.05;2.05;;;25.90;37.80;;;;;;20704;6742;277423;-87
2022/06/10 06:53:48;;;;;;;3.43;1.80;;;26.30;36.90;;;;;;20942;6727;116888;-88
2022/06/10 06:56:24;;;;;;;2.63;1.73;;;26.30;38.10;;;;;;20841;6739;116993;-89
2022/06/10 06:58:59;;;;;;;2.00;1.80;;;26.10;38.70;;;;;;20847;6740;122154;-88
2022/06/10 07:01:35;;;;;;;1.90;1.80;;;26.00;39.10;;;;;;20897;6744;117391;-88
2022/06/10 07:04:11;;;;;;;2.30;2.00;;;26.00;39.30;;;;;;20901;6749;116983;-87
2022/06/10 07:06:46;;;;;;;3.80;2.30;;;26.00;39.20;;;;;;20554;6755;299820;-90
2022/06/10 07:09:22;;;;;;;2.57;2.00;;;26.50;37.10;;;;;;20665;6755;276766;-88
2022/06/10 07:11:57;;;;;;;3.00;2.15;;;27.10;35.90;;;;;;20701;6740;336114;-87
2022/06/10 07:14:33;;;;;;;2.33;1.93;;;27.40;35.40;;;;;;20714;6745;276848;-89
2022/06/10 07:17:11;;;;;;;3.47;2.00;;;27.60;35.00;;;;;;20544;6753;311817;-87
2022/06/10 07:19:51;;;;;;;2.72;1.90;;;27.60;34.40;;;;;;20689;6746;306622;-89
2022/06/10 07:22:24;;;;;;;3.23;2.13;;;27.50;33.80;;;;;;20679;6746;306685;-88
2022/06/10 07:25:00;;;;;;;4.13;2.03;;;27.40;34.80;;;;;;20948;6738;116924;-88
2022/06/10 07:27:36;;;;;;;3.37;2.10;;;27.00;35.60;;;;;;20593;6730;297353;-89
2022/06/10 07:30:12;;;;;;;5.97;2.30;;;26.80;35.10;;;;;;20730;6730;276280;-89
2022/06/10 07:32:47;;;;;;;3.25;2.00;;;26.80;34.40;;;;;;20734;6738;329559;-92
2022/06/10 07:35:23;;;;;;;4.30;2.27;;;26.70;35.30;;;;;;20761;6753;304107;-93
2022/06/10 07:37:59;;;;;;;2.83;1.77;;;26.40;35.30;;;;;;20777;6745;116513;-88
2022/06/10 07:43:37;;;;;;;3.43;2.23;;;25.50;36.20;;;;;;20925;6753;117010;-90
2022/06/10 07:46:13;;;;;;;3.33;1.57;;;25.50;36.20;;;;;;20894;6745;118113;-88
2022/06/10 07:48:49;;;;;;;2.90;1.90;;;25.20;36.70;;;;;;20707;6745;306709;-88
2022/06/10 07:51:27;;;;;;;4.17;2.00;;;25.40;36.60;;;;;;20939;6745;119257;-90
2022/06/10 07:54:03;;;;;;;4.07;2.00;;;25.40;36.70;;;;;;20946;6745;118405;-90
2022/06/10 07:56:40;;;;;;;2.37;1.60;;;25.20;36.90;;;;;;20840;6745;117803;-88
2022/06/10 07:59:15;;;;;;;2.90;2.00;;;25.20;37.40;;;;;;20728;6745;321229;-89
2022/06/10 08:01:52;;;;;;;3.37;1.90;;;25.40;36.60;;;;;;20706;6751;277343;-88
2022/06/10 08:04:28;;;;;;;3.53;2.10;;;25.80;37.50;;;;;;20851;6771;116576;-89
2022/06/10 08:07:03;;;;;;;3.87;1.93;;;25.90;37.10;;;;;;20466;6779;278189;-91
2022/06/10 08:09:39;;;;;;;2.55;1.52;;;26.00;34.00;;;;;;20674;6740;311012;-88
2022/06/10 08:12:15;;;;;;;1.67;1.33;;;26.20;33.70;;;;;;20899;6746;117767;-88
2022/06/10 08:14:51;;;;;;;3.50;1.90;;;26.20;33.60;;;;;;20652;6745;295896;-88
2022/06/10 08:17:26;;;;;;;2.07;1.50;;;26.30;34.50;;;;;;20767;6740;117500;-89
2022/06/10 08:20:02;;;;;;;3.97;1.57;;;26.20;34.60;;;;;;20872;6750;117830;-89
2022/06/10 08:22:38;;;;;;;3.97;2.05;;;26.00;34.70;;;;;;20648;6750;303183;-89
2022/06/10 08:25:15;;;;;;;2.83;1.83;;;26.20;35.40;;;;;;20867;6750;117527;-89
2022/06/10 08:27:51;;;;;;;3.17;2.03;;;26.30;35.40;;;;;;20495;6764;336947;-91
2022/06/10 08:30:26;;;;;;;3.50;1.90;;;26.50;34.90;;;;;;20615;6759;309561;-89
2022/06/10 08:33:03;;;;;;;4.73;1.77;;;26.80;33.80;;;;;;20861;6750;119550;-90
2022/06/10 08:35:37;;;;;;;2.60;1.37;;;26.80;34.30;;;;;;20879;6749;117178;-88
2022/06/10 08:38:13;;;;;;;3.17;1.90;;;26.60;34.20;;;;;;20738;6725;277316;-90
2022/06/10 08:41:04;;;;;;;3.17;2.07;;;26.80;34.10;;;;;;20673;6730;279841;-89
2022/06/10 08:43:40;;;;;;;3.17;1.63;;;27.20;33.60;;;;;;20636;6757;276710;-89
2022/06/10 08:46:39;;;;;;;3.53;1.90;;;27.50;32.60;;;;;;20641;6740;278212;-89
2022/06/10 08:49:41;;;;;;;2.53;1.48;;;27.70;32.80;;;;;;20680;6798;277868;-89
2022/06/10 08:52:38;;;;;;;2.50;1.73;;;27.90;32.40;;;;;;20688;6745;306628;-89
2022/06/10 08:55:32;;;;;;;5.00;1.87;;;27.90;34.10;;;;;;20681;6749;276336;-89
2022/06/10 08:58:21;;;;;;;2.70;1.97;;;28.20;33.30;;;;;;20169;6877;312353;-89
2022/06/10 09:00:57;;;;;;;2.70;1.70;;;28.20;33.40;;;;;;20649;6746;305336;-89
2022/06/10 09:03:39;;;;;;;2.70;1.93;;;28.40;32.10;;;;;;20821;6766;117035;-89
2022/06/10 09:06:22;;;;;;;4.75;1.98;;;28.30;30.50;;;;;;20499;6790;311663;-89
2022/06/10 09:08:59;;;;;;;1.90;1.47;;;28.30;30.50;;;;;;20676;6810;119275;-89
2022/06/10 09:11:37;;;;;;;3.47;1.83;;;28.30;30.90;;;;;;20880;6749;117097;-92
2022/06/10 09:14:19;;;;;;;3.17;1.90;;;28.10;31.20;;;;;;20653;6749;307668;-89
2022/06/10 09:17:21;;;;;;;2.00;1.80;;;28.30;31.40;;;;;;20690;6813;118615;-90
2022/06/10 09:20:09;;;;;;;3.37;1.70;;;28.30;32.00;;;;;;20831;6760;117109;-90
2022/06/10 09:23:02;;;;;;;2.50;1.80;;;28.10;31.60;;;;;;20829;6754;117427;-90
2022/06/10 09:25:38;;;;;;;2.33;1.85;;;28.20;31.50;;;;;;20641;6755;334655;-89
2022/06/10 09:28:14;;;;;;;2.67;1.57;;;28.20;31.50;;;;;;20910;6737;117754;-89
2022/06/10 09:30:59;;;;;;;2.60;1.50;;;28.20;31.30;;;;;;20681;6730;307480;-91
2022/06/10 09:34:08;;;;;;;4.47;1.73;;;28.30;29.10;;;;;;20941;6730;116936;-90
2022/06/10 09:36:50;;;;;;;1.87;1.73;;;28.10;30.00;;;;;;20280;6840;148203;-89
2022/06/10 09:42:25;;;;;;;3.47;1.90;;;28.00;30.60;;;;;;20742;6724;305895;-89
2022/06/10 09:45:00;;;;;;;2.97;1.60;;;28.20;30.50;;;;;;20944;6725;118598;-92
2022/06/10 09:47:48;;;;;;;2.67;1.67;;;28.30;30.60;;;;;;20551;6724;310516;-89
2022/06/10 09:50:44;;;;;;;2.93;1.60;;;28.60;30.00;;;;;;20675;6745;307298;-89
2022/06/10 09:53:51;;;;;;;2.00;1.50;;;28.80;30.00;;;;;;20900;6745;117638;-90
2022/06/10 09:56:59;;;;;;;1.63;1.20;;;28.70;30.00;;;;;;20834;6734;117457;-88
2022/06/10 09:59:45;;;;;;;2.97;1.43;;;28.50;30.20;;;;;;20904;6743;117826;-88
2022/06/10 10:02:41;;;;;;;2.27;1.60;;;28.20;30.10;;;;;;20887;6741;117144;-89
2022/06/10 10:05:40;;;;;;;3.20;1.30;;;28.00;30.00;;;;;;20900;6745;120377;-90
2022/06/10 10:08:45;;;;;;;2.97;1.50;;;27.90;30.30;;;;;;20911;6737;117348;-89
2022/06/10 10:11:21;;;;;;;2.53;1.23;;;27.80;30.40;;;;;;19853;7079;122019;-90
2022/06/10 10:14:26;;;;;;;1.50;1.30;;;27.80;30.50;;;;;;20913;6740;117783;-89
2022/06/10 10:17:22;;;;;;;2.37;1.40;;;27.80;30.60;;;;;;20577;6725;309529;-90
2022/06/10 10:20:13;;;;;;;4.70;1.43;;;28.20;29.10;;;;;;20914;6744;117094;-94
2022/06/10 10:23:05;;;;;;;1.63;1.30;;;28.30;29.40;;;;;;20985;6743;66075;-93
2022/06/10 10:25:41;;;;;;;1.70;1.20;;;28.20;29.50;;;;;;21035;6725;66090;-89
2022/06/10 10:28:17;;;;;;;1.30;1.00;;;28.20;29.40;;;;;;20925;6740;116964;-91
2022/06/10 10:31:09;;;;;;;3.23;1.37;;;28.20;29.80;;;;;;20845;6760;118767;-90
2022/06/10 10:33:45;;;;;;;1.50;1.40;;;28.10;29.40;;;;;;20792;6811;116963;-91
2022/06/10 10:36:30;;;;;;;2.10;1.20;;;28.10;29.30;;;;;;20835;6745;116936;-89
2022/06/10 10:39:12;;;;;;;1.90;1.30;;;28.10;29.50;;;;;;20620;6756;306614;-89
2022/06/10 10:41:48;;;;;;;2.90;1.73;;;28.50;28.00;;;;;;20516;6804;277273;-93
2022/06/10 10:44:50;;;;;;;2.63;1.33;;;29.00;28.60;;;;;;20833;6778;117621;-89
2022/06/10 10:47:25;;;;;;;2.03;1.25;;;29.10;28.80;;;;;;20424;6785;292436;-90
2022/06/10 10:50:01;;;;;;;1.65;1.45;;;29.30;27.90;;;;;;20727;6738;336176;-90
2022/06/10 10:52:38;;;;;;;2.43;1.40;;;29.40;28.30;;;;;;20631;6745;291311;-90
2022/06/10 10:55:13;;;;;;;1.77;1.30;;;29.60;27.50;;;;;;20819;6758;117745;-90
2022/06/10 10:58:12;;;;;;;3.77;1.67;;;29.40;28.10;;;;;;20641;6776;117405;-89
2022/06/10 11:00:54;;;;;;;2.00;1.60;;;29.10;28.80;;;;;;20562;6778;307417;-91
2022/06/10 11:03:29;;;;;;;1.47;1.03;;;29.10;27.00;;;;;;20801;6776;117190;-92
2022/06/10 11:06:05;;;;;;;1.27;1.17;;;29.10;27.80;;;;;;20839;6752;117018;-90
2022/06/10 11:08:40;;;;;;;1.63;1.27;;;28.80;27.80;;;;;;20636;6807;306995;-89
2022/06/10 11:11:36;;;;;;;1.20;1.10;;;28.80;26.90;;;;;;20873;6753;116356;-89
2022/06/10 11:14:38;;;;;;;2.27;1.40;;;28.80;27.50;;;;;;20677;6754;306505;-89
2022/06/10 11:17:13;;;;;;;2.53;1.20;;;28.90;27.40;;;;;;20766;6752;117518;-89
2022/06/10 11:19:52;;;;;;;2.37;1.53;;;28.70;27.90;;;;;;20761;6735;276558;-90
2022/06/10 11:22:31;;;;;;;1.80;1.37;;;28.70;27.20;;;;;;20970;6735;116778;-90
2022/06/10 11:25:14;;;;;;;3.50;1.40;;;28.50;28.40;;;;;;20960;6735;117837;-90
2022/06/10 11:27:57;;;;;;;1.60;1.40;;;28.50;28.40;;;;;;20609;6735;339442;-89
2022/06/10 11:30:43;;;;;;;1.77;1.23;;;28.70;28.60;;;;;;20978;6735;117909;-89
2022/06/10 11:33:20;;;;;;;3.03;1.10;;;28.60;28.60;;;;;;20957;6742;118156;-90
2022/06/10 11:36:08;;;;;;;1.83;1.13;;;28.50;29.10;;;;;;20921;6742;117452;-90
2022/06/10 11:39:04;;;;;;;3.47;1.10;;;28.30;28.90;;;;;;20942;6740;117735;-90
2022/06/10 11:41:40;;;;;;;3.05;1.35;;;28.30;29.20;;;;;;20760;6736;337342;-89
2022/06/10 11:44:20;;;;;;;1.37;1.10;;;28.50;29.00;;;;;;20975;6736;117360;-90
2022/06/10 11:47:02;;;;;;;1.87;1.17;;;28.50;29.20;;;;;;20833;6736;171701;-89
2022/06/10 11:49:41;;;;;;;1.70;1.27;;;28.50;29.20;;;;;;20933;6750;117259;-90
2022/06/10 11:52:16;;;;;;;1.93;1.30;;;28.40;29.00;;;;;;20715;6777;276618;-89
2022/06/10 11:54:55;;;;;;;2.60;1.13;;;28.50;28.60;;;;;;20902;6753;117367;-90
2022/06/10 12:00:43;;;;;;;1.83;1.27;;;28.50;28.70;;;;;;20723;6745;306225;-92
2022/06/10 12:03:32;;;;;;;1.30;1.20;;;28.50;28.40;;;;;;20933;6751;117488;-94
2022/06/10 12:06:21;;;;;;;2.37;1.30;;;28.40;28.30;;;;;;20720;6740;306542;-89
2022/06/10 12:09:17;;;;;;;1.30;1.00;;;28.50;27.50;;;;;;20888;6755;117137;-93
2022/06/10 12:12:11;;;;;;;3.57;1.30;;;28.40;27.50;;;;;;20952;6746;117004;-89
2022/06/10 12:14:47;;;;;;;1.73;1.13;;;28.20;28.00;;;;;;20969;6734;119153;-90
2022/06/10 12:17:30;;;;;;;1.27;1.10;;;28.00;28.30;;;;;;20621;6741;310697;-93
2022/06/10 12:20:28;;;;;;;1.87;1.30;;;28.10;27.20;;;;;;20694;6771;276057;-89
2022/06/10 12:23:11;;;;;;;1.77;1.30;;;28.40;27.40;;;;;;20786;6727;303811;-94
2022/06/10 12:26:19;;;;;;;2.77;1.10;;;28.60;26.90;;;;;;20920;6755;116764;-90
2022/06/10 12:29:01;;;;;;;2.03;1.40;;;28.40;27.10;;;;;;20707;6755;323152;-91
2022/06/10 12:32:14;;;;;;;2.00;1.30;;;28.60;29.00;;;;;;20756;6742;320799;-89
2022/06/10 12:34:52;;;;;;;2.22;1.25;;;28.50;28.90;;;;;;20678;6740;309868;-90
2022/06/10 12:37:38;;;;;;;2.00;1.10;;;28.80;28.00;;;;;;20559;6742;313303;-89
2022/06/10 12:40:16;;;;;;;2.50;1.10;;;28.90;27.80;;;;;;20904;6736;117017;-89
2022/06/10 12:43:04;;;;;;;1.70;1.60;;;28.70;27.80;;;;;;20792;6755;117587;-91
2022/06/10 12:45:44;;;;;;;1.53;1.20;;;28.40;28.60;;;;;;20707;6741;310241;-89
2022/06/10 12:48:25;;;;;;;2.25;1.42;;;28.40;28.60;;;;;;20574;6816;336238;-87
2022/06/10 12:51:06;;;;;;;1.37;1.27;;;28.60;28.70;;;;;;20922;6745;116801;-89
2022/06/10 12:54:01;;;;;;;1.97;1.20;;;28.50;28.60;;;;;;20885;6795;117372;-89
2022/06/10 12:56:36;;;;;;;2.40;1.10;;;28.20;28.70;;;;;;20873;6733;116922;-91
2022/06/10 12:59:20;;;;;;;2.23;1.37;;;27.90;28.20;;;;;;20866;6799;116035;-91
2022/06/10 13:01:52;;;;;;;1.57;1.37;;;27.70;28.50;;;;;;20865;6763;117044;-94
2022/06/10 13:04:28;;;;;;;2.03;1.03;;;27.50;28.90;;;;;;21011;6741;116279;-95
2022/06/10 13:07:03;;;;;;;1.70;1.20;;;27.40;29.20;;;;;;20828;6763;118451;-90
2022/06/10 13:09:39;;;;;;;3.57;1.13;;;27.30;29.20;;;;;;21003;6719;116967;-92
2022/06/10 13:12:15;;;;;;;2.67;1.37;;;27.50;29.30;;;;;;20752;6719;303380;-90
2022/06/10 13:15:01;;;;;;;2.10;1.23;;;27.50;29.30;;;;;;20962;6719;117044;-91
2022/06/10 13:17:36;;;;;;;2.50;1.43;;;27.70;29.60;;;;;;20580;6719;307587;-90
2022/06/10 13:20:15;;;;;;;1.67;1.53;;;27.90;28.70;;;;;;20926;6776;116097;-91
2022/06/10 13:23:13;;;;;;;2.63;1.13;;;28.00;28.80;;;;;;20884;6751;117551;-90
2022/06/10 13:26:05;;;;;;;2.80;1.33;;;27.80;28.90;;;;;;20924;6732;116810;-91
2022/06/10 13:28:41;;;;;;;2.03;1.30;;;27.70;29.70;;;;;;20947;6721;116936;-91
2022/06/10 13:31:20;;;;;;;1.17;1.07;;;27.50;29.90;;;;;;20974;6721;118021;-92
2022/06/10 13:34:02;;;;;;;1.73;1.30;;;27.50;29.80;;;;;;20725;6721;305996;-90
2022/06/10 13:36:45;;;;;;;2.57;1.30;;;27.70;29.10;;;;;;20872;6736;117271;-91
2022/06/10 13:39:21;;;;;;;2.45;1.67;;;27.90;29.00;;;;;;20759;6721;306410;-89
2022/06/10 13:41:57;;;;;;;1.77;1.30;;;27.90;29.00;;;;;;20984;6721;119543;-89
2022/06/10 13:44:43;;;;;;;4.50;1.40;;;27.80;28.70;;;;;;20981;6721;117022;-90
2022/06/10 13:47:28;;;;;;;2.40;1.53;;;27.60;28.70;;;;;;20817;6721;117458;-88
2022/06/10 13:52:55;;;;;;;2.40;1.27;;;27.30;30.20;;;;;;20256;6777;121389;-88
2022/06/10 13:55:38;;;;;;;1.75;1.48;;;27.30;30.10;;;;;;20755;6721;305053;-88
2022/06/10 13:58:19;;;;;;;1.50;1.40;;;27.60;29.40;;;;;;20966;6721;117969;-89
2022/06/10 14:00:55;;;;;;;2.07;1.23;;;27.70;29.40;;;;;;20951;6721;121976;-89
2022/06/10 14:03:32;;;;;;;2.40;1.60;;;27.60;29.60;;;;;;20749;6721;305337;-90
2022/06/10 14:06:17;;;;;;;1.67;1.40;;;28.20;29.60;;;;;;20711;6721;280844;-88